Terminal Aerodrome Forecast
Issued by NWS Tiyan, Guam

Home | Current Version | Previous Version | Text Only | Print | Product List | Glossary On
Versions: 1 2 3 4 5 6 7 8 9 10 11 12 13 14 15 16 17 18 19 20 21 22 23 24 25 26
882
FTPQ31 PGUM 291121
TAFGUM
TAF
PGUM 291121Z 2912/3018 06012KT P6SM VCSH FEW011 BKN050 OVC080
      TEMPO 2912/2916 4SM SHRA FEW008 BKN030 OVC080
     FM292300 06015G25KT P6SM SCT022 BKN050 BKN100=

USA.gov is the U.S. government's official web portal to all federal, state and local government web resources and services.